createdAt,value
2023-05-08T00:00:17.087Z,81.99
2023-05-08T00:01:43.169Z,82.06
2023-05-08T00:02:49.463Z,81.97
2023-05-08T00:03:55.898Z,82.02
2023-05-08T00:05:02.013Z,82.02
2023-05-08T00:06:09.025Z,82.08
2023-05-08T00:07:15.277Z,81.98
2023-05-08T00:08:21.544Z,81.90
2023-05-08T00:09:27.629Z,81.92
2023-05-08T00:10:33.608Z,82.06
2023-05-08T00:11:39.436Z,81.99
2023-05-08T00:12:45.759Z,81.98
2023-05-08T00:13:51.755Z,81.97
2023-05-08T00:14:58.094Z,82.01
2023-05-08T00:16:04.182Z,82.09
2023-05-08T00:17:10.443Z,82.03
2023-05-08T00:18:16.673Z,82.09
2023-05-08T00:19:22.509Z,81.93
2023-05-08T00:20:29.062Z,81.97
2023-05-08T00:21:35.250Z,82.04
2023-05-08T00:22:40.963Z,82.05
2023-05-08T00:23:46.796Z,81.89
2023-05-08T00:24:53.100Z,81.93
2023-05-08T00:25:59.447Z,82.09
2023-05-08T00:27:05.982Z,81.81
2023-05-08T00:28:12.260Z,81.94
2023-05-08T00:29:18.168Z,81.97
2023-05-08T00:30:24.745Z,82.00
2023-05-08T00:31:30.578Z,82.02
2023-05-08T00:32:37.056Z,81.84
2023-05-08T00:33:43.209Z,81.82
2023-05-08T00:34:49.255Z,81.91
2023-05-08T00:36:00.885Z,81.85
2023-05-08T00:37:06.669Z,81.94
2023-05-08T00:38:12.733Z,82.06
2023-05-08T00:39:18.458Z,82.17
2023-05-08T00:40:25.455Z,81.99
2023-05-08T00:41:31.412Z,81.97
2023-05-08T00:42:37.842Z,82.03
2023-05-08T00:43:44.108Z,82.14
2023-05-08T00:44:51.191Z,82.08
2023-05-08T00:45:59.333Z,82.01
2023-05-08T00:47:06.353Z,82.18
2023-05-08T00:48:12.709Z,82.16
2023-05-08T00:49:18.935Z,82.25
2023-05-08T00:50:25.672Z,82.44
2023-05-08T00:51:32.185Z,82.48
2023-05-08T00:52:39.849Z,82.63
2023-05-08T00:53:46.848Z,82.46
2023-05-08T00:54:53.912Z,82.45
2023-05-08T00:56:00.341Z,82.38
2023-05-08T00:57:08.994Z,82.57
2023-05-08T00:58:15.664Z,82.53
2023-05-08T00:59:24.236Z,82.49
2023-05-08T01:00:31.654Z,82.70
2023-05-08T01:01:38.699Z,82.51
2023-05-08T01:02:45.743Z,82.58
2023-05-08T01:03:52.304Z,82.64
2023-05-08T01:04:58.913Z,82.57
2023-05-08T01:06:06.882Z,82.56
2023-05-08T01:07:13.478Z,82.66
2023-05-08T01:08:19.293Z,82.78
2023-05-08T01:09:25.139Z,82.91
2023-05-08T01:10:38.867Z,82.83
2023-05-08T01:11:48.828Z,82.79
2023-05-08T01:13:06.516Z,82.59
2023-05-08T01:14:17.500Z,82.55
2023-05-08T01:15:30.012Z,82.53
2023-05-08T01:16:44.306Z,82.59
2023-05-08T01:18:03.659Z,82.57
2023-05-08T01:19:33.808Z,82.61
2023-05-08T01:20:53.776Z,82.55
2023-05-08T01:22:08.760Z,82.45
2023-05-08T01:23:30.709Z,82.46
2023-05-08T01:25:02.791Z,82.38
2023-05-08T01:26:36.420Z,82.33
2023-05-08T01:28:18.966Z,82.39
2023-05-08T01:29:59.966Z,82.30
2023-05-08T01:31:15.538Z,82.19
2023-05-08T01:32:25.087Z,82.19
2023-05-08T01:33:36.896Z,82.16
2023-05-08T01:34:53.102Z,82.23
2023-05-08T01:36:10.443Z,82.32
2023-05-08T01:37:22.409Z,82.43
2023-05-08T01:38:39.415Z,82.14
2023-05-08T01:39:51.463Z,82.10
2023-05-08T01:41:10.321Z,82.15
2023-05-08T01:42:37.115Z,82.17
2023-05-08T01:43:53.609Z,82.04
2023-05-08T01:45:05.292Z,82.24
2023-05-08T01:46:18.869Z,82.24
2023-05-08T01:47:30.506Z,82.31
2023-05-08T01:48:44.831Z,82.28
2023-05-08T01:49:58.960Z,82.42
2023-05-08T01:51:09.108Z,82.43
2023-05-08T01:52:32.354Z,82.33
2023-05-08T01:53:42.901Z,82.53
2023-05-08T01:54:56.590Z,82.59
2023-05-08T01:56:15.933Z,82.39
2023-05-08T01:57:24.650Z,82.36
2023-05-08T01:58:34.294Z,82.50
2023-05-08T01:59:41.951Z,82.55
2023-05-08T02:00:51.008Z,82.49
2023-05-08T02:01:58.862Z,82.50
2023-05-08T02:03:12.104Z,82.66
2023-05-08T02:04:22.227Z,82.78
2023-05-08T02:05:30.113Z,82.88
2023-05-08T02:06:37.600Z,82.67
2023-05-08T02:07:47.293Z,82.94
2023-05-08T02:08:54.913Z,82.87
2023-05-08T02:10:03.870Z,82.77
2023-05-08T02:11:12.745Z,82.99
2023-05-08T02:12:22.303Z,83.16
2023-05-08T02:13:30.914Z,83.29
2023-05-08T02:14:38.895Z,83.33
2023-05-08T02:15:46.024Z,83.43
2023-05-08T02:16:54.952Z,83.46
2023-05-08T02:18:00.103Z,83.50
2023-05-08T02:19:07.494Z,83.40
2023-05-08T02:20:15.938Z,83.40
2023-05-08T02:21:23.714Z,83.41
2023-05-08T02:22:32.623Z,83.45
2023-05-08T02:23:39.819Z,83.48
2023-05-08T02:24:47.203Z,83.64
2023-05-08T02:25:55.632Z,83.64
2023-05-08T02:27:02.965Z,83.69
2023-05-08T02:28:10.027Z,83.77
2023-05-08T02:29:17.306Z,83.85
2023-05-08T02:30:25.866Z,83.96
2023-05-08T02:31:33.573Z,83.71
2023-05-08T02:32:41.867Z,83.74
2023-05-08T02:33:49.796Z,83.84
2023-05-08T02:35:03.093Z,83.80
2023-05-08T02:36:11.566Z,83.79
2023-05-08T02:37:20.566Z,83.83
2023-05-08T02:38:26.396Z,83.91
2023-05-08T02:39:35.437Z,83.76
2023-05-08T02:40:46.774Z,83.58
2023-05-08T02:41:53.064Z,83.65
2023-05-08T02:42:59.420Z,83.52
2023-05-08T02:44:06.594Z,83.67
2023-05-08T02:45:14.159Z,83.71
2023-05-08T02:46:26.498Z,83.51
2023-05-08T02:47:40.129Z,83.58
2023-05-08T02:48:57.306Z,83.28
2023-05-08T02:50:09.911Z,83.40
2023-05-08T02:51:22.362Z,83.25
2023-05-08T02:52:32.282Z,83.05
2023-05-08T02:53:46.597Z,83.18
2023-05-08T02:54:59.783Z,83.24
2023-05-08T02:56:11.288Z,83.03
2023-05-08T02:57:28.916Z,83.00
2023-05-08T02:58:42.840Z,83.01
2023-05-08T02:59:58.640Z,83.04
2023-05-08T03:01:08.756Z,82.91
2023-05-08T03:02:22.760Z,83.00
2023-05-08T03:03:36.858Z,82.72
2023-05-08T03:04:49.903Z,82.48
2023-05-08T03:05:58.070Z,82.48
2023-05-08T03:07:06.958Z,82.62
2023-05-08T03:08:27.087Z,82.57
2023-05-08T03:09:43.224Z,82.66
2023-05-08T03:10:52.622Z,82.47
2023-05-08T03:12:05.038Z,82.39
2023-05-08T03:13:13.973Z,82.15
2023-05-08T03:14:24.549Z,82.43
2023-05-08T03:15:36.562Z,82.22
2023-05-08T03:16:45.976Z,81.57
2023-05-08T03:17:56.311Z,81.89
2023-05-08T03:19:07.805Z,81.56
2023-05-08T03:20:17.573Z,81.55
2023-05-08T03:21:28.230Z,81.56
2023-05-08T03:22:37.576Z,81.58
2023-05-08T03:23:44.818Z,81.32
2023-05-08T03:24:53.671Z,81.42
2023-05-08T03:26:01.267Z,81.50
2023-05-08T03:27:08.622Z,81.49
2023-05-08T03:28:15.265Z,81.23
2023-05-08T03:29:24.197Z,80.83
2023-05-08T03:30:31.449Z,80.90
2023-05-08T03:31:38.395Z,80.99
2023-05-08T03:32:47.806Z,81.03
2023-05-08T03:33:55.575Z,80.91
2023-05-08T03:35:03.861Z,80.53
2023-05-08T03:36:11.397Z,80.48
2023-05-08T03:37:17.338Z,80.62
2023-05-08T03:38:23.666Z,80.29
2023-05-08T03:39:29.927Z,80.27
2023-05-08T03:40:38.693Z,80.22
2023-05-08T03:41:52.594Z,80.36
2023-05-08T03:43:00.821Z,80.25
2023-05-08T03:44:07.892Z,80.08
2023-05-08T03:45:16.212Z,80.19
2023-05-08T03:46:23.342Z,79.94
2023-05-08T03:47:29.725Z,79.76
2023-05-08T03:48:36.058Z,79.77
2023-05-08T03:49:43.144Z,79.70
2023-05-08T03:50:50.533Z,79.85
2023-05-08T03:51:57.257Z,80.15
2023-05-08T03:53:03.578Z,80.18
2023-05-08T03:54:09.797Z,79.77
2023-05-08T03:55:15.848Z,79.94
2023-05-08T03:56:23.081Z,80.10
2023-05-08T03:57:37.843Z,79.82
2023-05-08T03:58:54.907Z,79.89
2023-05-08T04:00:12.388Z,79.81
2023-05-08T04:01:28.672Z,79.71
2023-05-08T04:02:50.461Z,79.74
2023-05-08T04:04:08.120Z,79.29
2023-05-08T04:05:20.990Z,79.36
2023-05-08T04:06:48.549Z,79.63
2023-05-08T04:08:03.347Z,79.78
2023-05-08T04:09:20.451Z,79.46
2023-05-08T04:10:32.565Z,79.22
2023-05-08T04:11:48.662Z,79.17
2023-05-08T04:13:04.697Z,78.97
2023-05-08T04:14:15.700Z,78.75
2023-05-08T04:15:26.922Z,78.90
2023-05-08T04:16:38.418Z,79.15
2023-05-08T04:17:48.374Z,79.07
2023-05-08T04:19:01.513Z,79.22
2023-05-08T04:20:14.035Z,79.03
2023-05-08T04:21:24.073Z,78.89
2023-05-08T04:22:33.203Z,78.72
2023-05-08T04:23:42.404Z,78.72
2023-05-08T04:24:51.928Z,78.65
2023-05-08T04:26:00.603Z,78.64
2023-05-08T04:27:07.494Z,78.95
2023-05-08T04:28:13.531Z,79.18
2023-05-08T04:29:20.566Z,78.88
2023-05-08T04:30:27.850Z,78.97
2023-05-08T04:31:34.819Z,79.03
2023-05-08T04:32:44.146Z,78.94
2023-05-08T04:33:52.004Z,78.84
2023-05-08T04:34:59.082Z,78.80
2023-05-08T04:36:06.433Z,78.52
2023-05-08T04:37:29.573Z,78.79
2023-05-08T04:38:38.091Z,78.53
2023-05-08T04:39:44.115Z,78.39
2023-05-08T04:40:50.165Z,78.60
2023-05-08T04:42:03.501Z,78.69
2023-05-08T04:43:10.474Z,78.64
2023-05-08T04:44:17.649Z,78.62
2023-05-08T04:45:25.436Z,78.58
2023-05-08T04:46:31.564Z,78.56
2023-05-08T04:47:38.251Z,78.39
2023-05-08T04:48:45.022Z,78.25
2023-05-08T04:49:51.400Z,78.19
2023-05-08T04:50:58.195Z,77.95
2023-05-08T04:52:06.537Z,77.68
2023-05-08T04:53:12.553Z,77.75
2023-05-08T04:54:18.738Z,77.63
2023-05-08T04:55:25.399Z,77.86
2023-05-08T04:56:31.698Z,77.89
2023-05-08T04:57:37.618Z,77.74
2023-05-08T04:58:43.660Z,77.68
2023-05-08T04:59:50.052Z,77.71
2023-05-08T05:00:56.397Z,77.82
2023-05-08T05:02:02.785Z,77.70
2023-05-08T05:03:09.438Z,77.55
2023-05-08T05:04:16.259Z,77.26
2023-05-08T05:05:22.508Z,76.69
2023-05-08T05:06:28.769Z,76.35
2023-05-08T05:07:35.006Z,76.31
2023-05-08T05:08:41.506Z,75.92
2023-05-08T05:09:47.320Z,75.86
2023-05-08T05:10:53.693Z,75.92
2023-05-08T05:12:07.941Z,75.77
2023-05-08T05:13:14.245Z,75.94
2023-05-08T05:14:20.399Z,75.94
2023-05-08T05:15:26.299Z,75.79
2023-05-08T05:16:32.595Z,75.78
2023-05-08T05:17:39.057Z,75.67
2023-05-08T05:18:46.334Z,75.39
2023-05-08T05:19:53.980Z,75.41
2023-05-08T05:21:00.927Z,75.69
2023-05-08T05:22:08.723Z,75.59
2023-05-08T05:23:14.982Z,75.84
2023-05-08T05:24:22.460Z,75.81
2023-05-08T05:25:28.856Z,75.49
2023-05-08T05:26:36.406Z,75.41
2023-05-08T05:27:43.117Z,75.31
2023-05-08T05:28:50.257Z,75.25
2023-05-08T05:29:58.056Z,75.34
2023-05-08T05:31:04.890Z,75.28
2023-05-08T05:32:13.329Z,75.06
2023-05-08T05:33:19.817Z,74.75
2023-05-08T05:34:25.924Z,74.97
2023-05-08T05:35:32.383Z,74.82
2023-05-08T05:36:40.913Z,74.99
2023-05-08T05:37:46.944Z,75.42
2023-05-08T05:38:53.270Z,75.00
2023-05-08T05:39:58.937Z,74.79
2023-05-08T05:41:05.892Z,74.94
2023-05-08T05:42:12.837Z,74.74
2023-05-08T05:43:18.890Z,74.69
2023-05-08T05:44:24.800Z,73.80
2023-05-08T05:45:33.147Z,73.50
2023-05-08T05:46:44.253Z,73.09
2023-05-08T05:47:54.403Z,72.83
2023-05-08T05:49:01.191Z,72.91
2023-05-08T05:50:09.600Z,72.69
2023-05-08T05:51:16.643Z,72.59
2023-05-08T05:52:22.681Z,72.66
2023-05-08T05:53:29.247Z,72.47
2023-05-08T05:54:35.627Z,72.45
2023-05-08T05:55:41.854Z,71.91
2023-05-08T05:56:48.327Z,71.86
2023-05-08T05:57:54.385Z,72.10
2023-05-08T05:59:01.464Z,72.39
2023-05-08T06:00:12.312Z,71.69
2023-05-08T06:01:19.301Z,72.07
2023-05-08T06:02:25.240Z,72.29
2023-05-08T06:03:31.724Z,71.66
2023-05-08T06:04:38.090Z,71.20
2023-05-08T06:05:46.659Z,70.66
2023-05-08T06:06:52.788Z,71.21
2023-05-08T06:07:59.470Z,71.30
2023-05-08T06:09:07.256Z,70.85
2023-05-08T06:10:13.949Z,70.76
2023-05-08T06:11:22.938Z,70.89
2023-05-08T06:12:29.090Z,70.82
2023-05-08T06:13:34.967Z,70.44
2023-05-08T06:14:41.249Z,70.67
2023-05-08T06:15:47.243Z,71.00
2023-05-08T06:16:53.473Z,71.20
2023-05-08T06:17:59.197Z,71.29
2023-05-08T06:19:05.687Z,71.40
2023-05-08T06:20:13.274Z,71.17
2023-05-08T06:21:19.277Z,70.27
2023-05-08T06:22:26.394Z,70.32
2023-05-08T06:23:32.654Z,70.27
2023-05-08T06:24:39.106Z,69.28
2023-05-08T06:25:45.557Z,68.95
2023-05-08T06:26:52.126Z,68.76
2023-05-08T06:27:58.582Z,68.08
2023-05-08T06:29:05.162Z,68.26
2023-05-08T06:30:13.921Z,68.86
2023-05-08T06:31:19.963Z,68.82
2023-05-08T06:32:26.575Z,68.63
2023-05-08T06:33:32.430Z,68.72
2023-05-08T06:34:38.442Z,69.40
2023-05-08T06:35:47.945Z,69.50
2023-05-08T06:36:53.849Z,68.13
2023-05-08T06:38:00.212Z,67.84
2023-05-08T06:39:09.020Z,67.70
2023-05-08T06:40:15.916Z,67.57
2023-05-08T06:41:22.035Z,66.39
2023-05-08T06:42:28.512Z,66.59
2023-05-08T06:43:34.453Z,66.68
2023-05-08T06:44:40.922Z,66.72
2023-05-08T06:45:46.957Z,66.83
2023-05-08T06:46:53.221Z,67.10
2023-05-08T06:47:59.768Z,66.95
2023-05-08T06:49:06.218Z,67.54
2023-05-08T06:50:12.782Z,66.98
2023-05-08T06:51:20.087Z,66.39
2023-05-08T06:52:25.965Z,66.55
2023-05-08T06:53:32.484Z,66.84
2023-05-08T06:54:38.399Z,66.99
2023-05-08T06:55:46.226Z,67.43
2023-05-08T06:56:54.235Z,67.28
2023-05-08T06:58:00.656Z,66.57
2023-05-08T06:59:08.769Z,66.34
2023-05-08T07:00:18.474Z,66.57
2023-05-08T07:01:25.063Z,66.61
2023-05-08T07:02:31.518Z,66.60
2023-05-08T07:03:37.954Z,66.65
2023-05-08T07:04:45.695Z,66.76
2023-05-08T07:05:51.894Z,66.18
2023-05-08T07:06:58.166Z,66.56
2023-05-08T07:08:04.417Z,66.91
2023-05-08T07:09:13.117Z,67.48
2023-05-08T07:10:21.521Z,67.57
2023-05-08T07:11:28.015Z,68.00
2023-05-08T07:12:34.319Z,68.09
2023-05-08T07:13:42.428Z,67.59
2023-05-08T07:14:48.201Z,67.22
2023-05-08T07:15:54.238Z,66.90
2023-05-08T07:17:06.882Z,66.92
2023-05-08T07:18:13.106Z,67.01
2023-05-08T07:19:22.348Z,66.72
2023-05-08T07:20:29.846Z,66.33
2023-05-08T07:21:35.539Z,66.05
2023-05-08T07:22:42.212Z,65.91
2023-05-08T07:23:52.023Z,65.37
2023-05-08T07:24:58.007Z,65.17
2023-05-08T07:26:03.865Z,65.47
2023-05-08T07:27:10.264Z,65.47
2023-05-08T07:28:17.138Z,65.56
2023-05-08T07:29:23.599Z,65.59
2023-05-08T07:30:29.609Z,65.41
2023-05-08T07:31:36.792Z,65.47
2023-05-08T07:32:43.337Z,65.36
2023-05-08T07:33:50.139Z,65.30
2023-05-08T07:34:56.408Z,65.67
2023-05-08T07:36:02.447Z,65.79
2023-05-08T07:37:09.006Z,65.10
2023-05-08T07:38:15.123Z,65.07
2023-05-08T07:39:21.511Z,65.35
2023-05-08T07:40:28.171Z,65.45
2023-05-08T07:41:37.283Z,65.50
2023-05-08T07:42:45.358Z,65.56
2023-05-08T07:43:52.050Z,65.35
2023-05-08T07:44:58.129Z,65.68
2023-05-08T07:46:05.594Z,65.78
2023-05-08T07:47:11.764Z,66.15
2023-05-08T07:48:18.428Z,66.30
2023-05-08T07:49:25.551Z,66.23
2023-05-08T07:50:31.686Z,66.52
2023-05-08T07:51:37.613Z,66.38
2023-05-08T07:52:43.683Z,66.12
2023-05-08T07:53:51.294Z,65.75
2023-05-08T07:54:58.469Z,65.72
2023-05-08T07:56:06.645Z,66.04
2023-05-08T07:57:13.635Z,66.11
2023-05-08T07:58:19.587Z,66.40
2023-05-08T07:59:26.102Z,66.63
2023-05-08T08:00:32.603Z,66.24
2023-05-08T08:01:40.398Z,66.57
2023-05-08T08:02:47.221Z,66.62
2023-05-08T08:03:54.840Z,66.41
2023-05-08T08:05:01.401Z,66.80
2023-05-08T08:06:07.923Z,67.06
2023-05-08T08:07:13.964Z,66.72
2023-05-08T08:08:20.435Z,66.60
2023-05-08T08:09:26.425Z,66.47
2023-05-08T08:10:34.336Z,66.27
2023-05-08T08:11:40.965Z,66.52
2023-05-08T08:12:46.712Z,66.59
2023-05-08T08:13:53.678Z,66.99
2023-05-08T08:15:00.172Z,66.96
2023-05-08T08:16:08.339Z,67.09
2023-05-08T08:17:14.649Z,67.24
2023-05-08T08:18:21.153Z,67.29
2023-05-08T08:19:26.867Z,67.31
2023-05-08T08:20:33.157Z,67.60
2023-05-08T08:21:46.291Z,67.77
2023-05-08T08:22:54.159Z,67.96
2023-05-08T08:24:00.350Z,67.56
2023-05-08T08:25:10.116Z,67.72
2023-05-08T08:26:16.806Z,68.02
2023-05-08T08:27:23.385Z,68.05
2023-05-08T08:28:30.004Z,68.21
2023-05-08T08:29:36.671Z,67.92
2023-05-08T08:30:42.461Z,67.64
2023-05-08T08:31:50.451Z,67.08
2023-05-08T08:32:56.244Z,66.90
2023-05-08T08:34:02.302Z,66.76
2023-05-08T08:35:10.841Z,67.06
2023-05-08T08:36:17.532Z,67.19
2023-05-08T08:37:24.335Z,67.09
2023-05-08T08:38:30.715Z,67.42
2023-05-08T08:39:36.994Z,67.40
2023-05-08T08:40:44.056Z,67.38
2023-05-08T08:41:50.698Z,67.02
2023-05-08T08:42:57.542Z,66.77
2023-05-08T08:44:03.751Z,66.37
2023-05-08T08:45:11.274Z,66.22
2023-05-08T08:46:20.304Z,65.84
2023-05-08T08:47:28.249Z,65.70
2023-05-08T08:48:35.462Z,65.66
2023-05-08T08:49:48.653Z,65.50
2023-05-08T08:50:58.895Z,64.86
2023-05-08T08:52:11.898Z,63.62
2023-05-08T08:53:27.312Z,63.45
2023-05-08T08:54:36.347Z,63.73
2023-05-08T08:55:47.179Z,64.12
2023-05-08T08:56:56.041Z,65.00
2023-05-08T08:58:05.936Z,65.18
2023-05-08T08:59:13.703Z,65.30
2023-05-08T09:00:22.755Z,65.89
2023-05-08T09:01:29.779Z,66.67
2023-05-08T09:02:36.555Z,66.82
2023-05-08T09:03:43.089Z,67.12
2023-05-08T09:04:51.896Z,66.50
2023-05-08T09:05:59.326Z,66.66
2023-05-08T09:07:07.475Z,67.21
2023-05-08T09:08:14.133Z,66.63
2023-05-08T09:09:20.092Z,65.81
2023-05-08T09:10:26.861Z,66.07
2023-05-08T09:11:33.201Z,66.05
2023-05-08T09:12:41.647Z,65.76
2023-05-08T09:13:47.876Z,65.97
2023-05-08T09:14:54.109Z,64.96
2023-05-08T09:16:01.671Z,64.75
2023-05-08T09:17:09.217Z,64.97
2023-05-08T09:18:15.560Z,64.69
2023-05-08T09:19:25.630Z,64.52
2023-05-08T09:20:36.697Z,65.13
2023-05-08T09:21:43.236Z,65.42
2023-05-08T09:22:51.823Z,65.75
2023-05-08T09:24:01.200Z,66.37
2023-05-08T09:25:09.995Z,65.82
2023-05-08T09:26:32.731Z,65.90
2023-05-08T09:27:39.607Z,64.97
2023-05-08T09:28:46.066Z,65.36
2023-05-08T09:30:02.852Z,65.32
2023-05-08T09:31:09.014Z,64.72
2023-05-08T09:32:20.079Z,64.52
2023-05-08T09:33:27.776Z,63.57
2023-05-08T09:34:35.250Z,63.13
2023-05-08T09:35:41.729Z,64.03
2023-05-08T09:36:47.824Z,64.38
2023-05-08T09:37:55.067Z,63.69
2023-05-08T09:39:03.343Z,62.87
2023-05-08T09:40:26.836Z,63.48
2023-05-08T09:41:33.045Z,63.53
2023-05-08T09:42:41.468Z,62.70
2023-05-08T09:44:02.956Z,61.90
2023-05-08T09:45:11.411Z,61.39
2023-05-08T09:46:27.403Z,62.35
2023-05-08T09:47:37.593Z,62.91
2023-05-08T09:48:43.457Z,62.70
2023-05-08T09:50:03.708Z,62.86
2023-05-08T09:51:11.133Z,63.23
2023-05-08T09:52:19.118Z,63.43
2023-05-08T09:53:33.884Z,63.71
2023-05-08T09:54:40.108Z,63.58
2023-05-08T09:55:52.121Z,63.31
2023-05-08T09:56:58.667Z,63.62
2023-05-08T09:58:05.505Z,63.96
2023-05-08T09:59:26.893Z,64.62
2023-05-08T10:00:40.644Z,65.34
2023-05-08T10:01:46.716Z,65.55
2023-05-08T10:03:00.822Z,65.86
2023-05-08T10:04:07.219Z,65.77
2023-05-08T10:05:27.894Z,66.03
2023-05-08T10:06:34.092Z,66.47
2023-05-08T10:07:41.466Z,65.84
2023-05-08T10:08:48.426Z,65.85
2023-05-08T10:10:02.921Z,65.74
2023-05-08T10:11:17.724Z,66.18
2023-05-08T10:12:24.966Z,66.32
2023-05-08T10:13:31.408Z,66.71
2023-05-08T10:14:37.329Z,67.29
2023-05-08T10:15:44.424Z,67.59
2023-05-08T10:16:55.152Z,66.75
2023-05-08T10:18:06.066Z,66.89
2023-05-08T10:19:15.158Z,66.03
2023-05-08T10:20:25.693Z,66.55
2023-05-08T10:21:36.396Z,67.09
2023-05-08T10:22:45.450Z,66.88
2023-05-08T10:23:55.986Z,66.92
2023-05-08T10:25:03.533Z,66.85
2023-05-08T10:26:12.799Z,66.68
2023-05-08T10:27:30.579Z,66.44
2023-05-08T10:28:43.738Z,66.63
2023-05-08T10:29:56.230Z,66.95
2023-05-08T10:31:03.902Z,67.15
2023-05-08T10:32:14.481Z,67.15
2023-05-08T10:33:26.053Z,67.05
2023-05-08T10:34:35.434Z,67.09
2023-05-08T10:35:42.520Z,66.78
2023-05-08T10:36:54.155Z,66.92
2023-05-08T10:38:00.621Z,67.06
2023-05-08T10:39:07.699Z,67.77
2023-05-08T10:40:21.742Z,67.61
2023-05-08T10:41:29.454Z,67.20
2023-05-08T10:42:36.617Z,66.57
2023-05-08T10:43:44.019Z,66.83
2023-05-08T10:44:50.369Z,66.66
2023-05-08T10:45:58.098Z,66.69
2023-05-08T10:47:12.152Z,66.94
2023-05-08T10:48:27.151Z,66.89
2023-05-08T10:49:55.461Z,67.12
2023-05-08T10:51:06.331Z,67.37
2023-05-08T10:52:18.913Z,67.28
2023-05-08T10:53:34.554Z,67.84
2023-05-08T10:55:17.847Z,68.23
2023-05-08T10:56:29.135Z,68.72
2023-05-08T10:57:35.826Z,69.04
2023-05-08T10:58:41.903Z,69.32
2023-05-08T10:59:48.545Z,69.75
2023-05-08T11:01:14.306Z,69.60
2023-05-08T11:02:37.347Z,69.93
2023-05-08T11:03:46.312Z,70.57
2023-05-08T11:04:53.300Z,70.89
2023-05-08T11:06:01.869Z,70.13
2023-05-08T11:07:08.473Z,70.23
2023-05-08T11:08:18.539Z,70.64
2023-05-08T11:09:29.269Z,70.77
2023-05-08T11:10:40.528Z,70.90
2023-05-08T11:12:05.729Z,70.85
2023-05-08T11:13:13.856Z,71.61
2023-05-08T11:14:21.514Z,71.73
2023-05-08T11:15:39.744Z,71.82
2023-05-08T11:17:07.217Z,71.64
2023-05-08T11:18:12.088Z,71.18
2023-05-08T11:19:22.588Z,72.04
2023-05-08T11:20:40.983Z,71.37
2023-05-08T11:22:32.930Z,70.46
2023-05-08T11:23:39.218Z,71.22
2023-05-08T11:24:53.345Z,72.01
2023-05-08T11:26:04.289Z,71.89
2023-05-08T11:27:10.447Z,71.74
2023-05-08T11:28:18.577Z,72.47
2023-05-08T11:29:24.960Z,72.44
2023-05-08T11:30:41.789Z,72.16
2023-05-08T11:31:54.368Z,71.80
2023-05-08T11:33:15.534Z,71.64
2023-05-08T11:34:50.361Z,71.92
2023-05-08T11:35:59.719Z,72.09
2023-05-08T11:37:11.169Z,72.77
2023-05-08T11:38:19.839Z,73.64
2023-05-08T11:39:25.952Z,74.22
2023-05-08T11:40:54.416Z,73.81
2023-05-08T11:42:35.282Z,74.15
2023-05-08T11:44:20.343Z,74.09
2023-05-08T11:45:27.357Z,74.25
2023-05-08T11:46:43.835Z,73.93
2023-05-08T11:47:49.741Z,74.44
2023-05-08T11:49:01.846Z,74.33
2023-05-08T11:50:10.459Z,74.04
2023-05-08T11:51:21.475Z,74.39
2023-05-08T11:52:28.593Z,73.95
2023-05-08T11:53:36.540Z,73.45
2023-05-08T11:54:42.534Z,73.64
2023-05-08T11:55:52.554Z,73.44
2023-05-08T11:56:59.642Z,73.35
2023-05-08T11:58:17.792Z,72.56
2023-05-08T11:59:23.612Z,73.10
2023-05-08T12:00:29.702Z,73.14
2023-05-08T12:01:37.514Z,73.81
2023-05-08T12:02:47.616Z,73.53
2023-05-08T12:04:02.583Z,74.29
2023-05-08T12:05:10.916Z,73.74
2023-05-08T12:06:19.400Z,73.84
2023-05-08T12:07:25.903Z,74.27
2023-05-08T12:08:32.211Z,75.05
2023-05-08T12:09:38.656Z,74.56
2023-05-08T12:10:52.018Z,74.36
2023-05-08T12:12:01.120Z,74.04
2023-05-08T12:13:23.672Z,73.60
2023-05-08T12:14:29.705Z,73.26
2023-05-08T12:15:37.474Z,73.52
2023-05-08T12:16:43.506Z,73.37
2023-05-08T12:18:00.641Z,73.51
2023-05-08T12:19:09.394Z,73.57
2023-05-08T12:20:18.742Z,72.98
2023-05-08T12:21:25.453Z,73.04
2023-05-08T12:22:31.706Z,73.15
2023-05-08T12:23:38.578Z,72.89
2023-05-08T12:24:45.562Z,72.99
2023-05-08T12:25:55.443Z,73.16
2023-05-08T12:27:02.255Z,73.36
2023-05-08T12:28:12.227Z,72.66
2023-05-08T12:29:20.720Z,72.89
2023-05-08T12:30:27.253Z,72.11
2023-05-08T12:31:34.072Z,72.18
2023-05-08T12:32:41.462Z,72.50
2023-05-08T12:33:47.466Z,72.08
2023-05-08T12:34:53.453Z,72.19
2023-05-08T12:36:00.594Z,72.46
2023-05-08T12:37:06.894Z,72.42
2023-05-08T12:38:13.196Z,72.49
2023-05-08T12:39:20.400Z,72.12
2023-05-08T12:40:29.287Z,71.60
2023-05-08T12:41:35.132Z,71.06
2023-05-08T12:42:49.327Z,70.90
2023-05-08T12:43:57.203Z,71.06
2023-05-08T12:45:03.345Z,71.15
2023-05-08T12:46:14.943Z,71.31
2023-05-08T12:47:22.210Z,71.12
2023-05-08T12:48:28.934Z,70.47
2023-05-08T12:49:35.123Z,70.73
2023-05-08T12:50:43.381Z,70.75
2023-05-08T12:51:50.839Z,71.49
2023-05-08T12:53:01.652Z,71.01
2023-05-08T12:54:07.675Z,71.07
2023-05-08T12:55:25.721Z,71.01
2023-05-08T12:56:31.797Z,71.28
2023-05-08T12:57:40.299Z,71.35
2023-05-08T12:58:46.249Z,71.40
2023-05-08T13:00:04.473Z,71.45
2023-05-08T13:01:13.729Z,71.25
2023-05-08T13:02:23.742Z,71.88
2023-05-08T13:03:30.941Z,71.61
2023-05-08T13:04:40.100Z,71.76
2023-05-08T13:05:46.887Z,72.01
2023-05-08T13:06:58.014Z,72.03
2023-05-08T13:08:05.864Z,72.29
2023-05-08T13:09:18.034Z,72.62
2023-05-08T13:10:25.460Z,72.78
2023-05-08T13:11:34.480Z,72.37
2023-05-08T13:12:40.681Z,72.55
2023-05-08T13:13:46.679Z,72.38
2023-05-08T13:14:52.761Z,72.12
2023-05-08T13:16:02.337Z,72.29
2023-05-08T13:17:08.510Z,72.32
2023-05-08T13:18:15.092Z,72.36
2023-05-08T13:19:21.019Z,72.90
2023-05-08T13:20:27.066Z,73.47
2023-05-08T13:21:33.451Z,73.58
2023-05-08T13:22:39.168Z,73.59
2023-05-08T13:23:45.110Z,73.47
2023-05-08T13:24:51.000Z,73.46
2023-05-08T13:25:57.609Z,73.50
2023-05-08T13:27:03.891Z,73.47
2023-05-08T13:28:11.040Z,73.85
2023-05-08T13:29:17.353Z,73.89
2023-05-08T13:30:24.047Z,73.85
2023-05-08T13:31:30.283Z,74.27
2023-05-08T13:32:36.382Z,74.39
2023-05-08T13:33:42.371Z,74.28
2023-05-08T13:34:51.063Z,73.81
2023-05-08T13:35:59.215Z,74.38
2023-05-08T13:37:05.070Z,73.51
2023-05-08T13:38:11.204Z,73.87
2023-05-08T13:39:17.179Z,74.06
2023-05-08T13:40:23.612Z,74.17
2023-05-08T13:41:29.935Z,74.63
2023-05-08T13:42:37.361Z,74.52
2023-05-08T13:43:44.079Z,74.32
2023-05-08T13:44:54.183Z,74.75
2023-05-08T13:45:59.942Z,74.67
2023-05-08T13:47:06.409Z,75.03
2023-05-08T13:48:12.399Z,74.38
2023-05-08T13:49:19.939Z,74.43
2023-05-08T13:50:25.885Z,74.80
2023-05-08T13:51:31.867Z,74.73
2023-05-08T13:52:38.509Z,74.46
2023-05-08T13:53:44.335Z,74.66
2023-05-08T13:54:50.587Z,74.20
2023-05-08T13:55:56.532Z,74.72
2023-05-08T13:57:02.860Z,74.73
2023-05-08T13:58:09.486Z,74.60
2023-05-08T13:59:16.022Z,74.50
2023-05-08T14:00:25.999Z,74.27
2023-05-08T14:01:34.990Z,74.19
2023-05-08T14:02:41.083Z,74.19
2023-05-08T14:03:47.412Z,73.99
2023-05-08T14:04:53.830Z,74.15
2023-05-08T14:06:00.361Z,74.09
2023-05-08T14:07:06.663Z,73.64
2023-05-08T14:08:12.832Z,73.39
2023-05-08T14:09:18.513Z,73.51
2023-05-08T14:10:24.805Z,73.69
2023-05-08T14:11:31.201Z,73.62
2023-05-08T14:12:38.119Z,74.37
2023-05-08T14:13:44.517Z,73.83
2023-05-08T14:14:51.085Z,73.44
2023-05-08T14:15:57.250Z,73.50
2023-05-08T14:17:03.887Z,73.96
2023-05-08T14:18:10.125Z,73.98
2023-05-08T14:19:16.612Z,74.38
2023-05-08T14:20:22.965Z,74.31
2023-05-08T14:21:29.641Z,74.14
2023-05-08T14:22:35.758Z,73.39
2023-05-08T14:23:41.709Z,73.37
2023-05-08T14:24:47.447Z,73.66
2023-05-08T14:25:53.604Z,72.89
2023-05-08T14:26:59.858Z,72.86
2023-05-08T14:28:06.931Z,73.38
2023-05-08T14:29:12.767Z,73.36
2023-05-08T14:30:18.745Z,73.20
2023-05-08T14:31:24.949Z,72.92
2023-05-08T14:32:31.227Z,73.09
2023-05-08T14:33:37.610Z,73.22
2023-05-08T14:34:43.438Z,73.02
2023-05-08T14:35:49.445Z,72.83
2023-05-08T14:36:56.068Z,73.02
2023-05-08T14:38:01.866Z,72.90
2023-05-08T14:39:08.088Z,73.35
2023-05-08T14:40:14.487Z,73.16
2023-05-08T14:41:22.193Z,72.73
2023-05-08T14:42:28.069Z,72.93
2023-05-08T14:43:34.158Z,73.63
2023-05-08T14:44:40.125Z,73.63
2023-05-08T14:45:46.160Z,73.47
2023-05-08T14:46:52.432Z,73.79
2023-05-08T14:47:58.622Z,73.27
2023-05-08T14:49:05.562Z,73.20